Jean Anne — WDC3786 — position and weather

sailwx.info

Track history (hours):
 
Tides and Currents Weather Stations Pressure Air Temp Water Temp Dewpoint Dewpoint Depression Visibility Wind Speed Wind Dir Waves Ship Positions

Jean Anne

Owner: PASHA HAWAII TRANSPORT LINES LLC, National City, CA. More information available from US FCC via Universal Licensing System and Coast Guard Vessel Documentation Center.

Last reported at 2017-Feb-25 21:20 UTC. Time now 2017-Feb-28 12:45 UTC.
Position N 31°14' W 118°26'.

Type: Cargo ship. MMSI: 367003380.

Date/timePositionNaut miles runAvg speedWind from/ knotsBaromVisibWave heightAir tempDewpointWater temp
2017-Feb-25 21:20N 31°14' W 118°26'1719.6
2017-Feb-25 20:29N 31°28' W 118°14'1819.4
2017-Feb-25 19:33N 31°42' W 118°02'2419.5
2017-Feb-25 18:18N 32°02' W 117°45'1519.5
2017-Feb-25 17:31N 32°14' W 117°34'1616.4
2017-Feb-25 16:34N 32°27' W 117°23'1515.3
2017-Feb-25 15:33N 32°40' W 117°14'5 1.8
2017-Feb-25 12:31N 32°39' W 117°07'0 0.0
2017-Feb-25 08:28N 32°39' W 117°07'0 0.0
2017-Feb-25 05:32N 32°39' W 117°07'0 0.0
2017-Feb-24 21:28N 32°39' W 117°07'0 0.0
2017-Feb-24 16:30N 32°39' W 117°07'0 0.0
2017-Feb-24 15:29N 32°39' W 117°07'2 1.9
2017-Feb-24 14:33N 32°41' W 117°08'7 6.9
2017-Feb-24 13:33N 32°37' W 117°15'1111.2
2017-Feb-24 12:33N 32°28' W 117°23'1110.9
2017-Feb-24 11:33N 32°19' W 117°30'  
Track history (hours):
 
Tides and Currents Weather Stations Pressure Air Temp Water Temp Dewpoint Dewpoint Depression Visibility Wind Speed Wind Dir Waves Ship Positions

Jean Anne

Owner: PASHA HAWAII TRANSPORT LINES LLC, National City, CA. More information available from US FCC via Universal Licensing System and Coast Guard Vessel Documentation Center.

Last reported at 2017-Feb-25 21:20 UTC. Time now 2017-Feb-28 12:45 UTC.
Position N 31°14' W 118°26'.

Type: Cargo ship. MMSI: 367003380.

Date/timePositionNaut miles runAvg speedWind from/ knotsBaromVisibWave heightAir tempDewpointWater temp
2017-Feb-25 21:20N 31°14' W 118°26'1719.6
2017-Feb-25 20:29N 31°28' W 118°14'1819.4
2017-Feb-25 19:33N 31°42' W 118°02'2419.5
2017-Feb-25 18:18N 32°02' W 117°45'1519.5
2017-Feb-25 17:31N 32°14' W 117°34'1616.4
2017-Feb-25 16:34N 32°27' W 117°23'1515.3
2017-Feb-25 15:33N 32°40' W 117°14'5 1.8
2017-Feb-25 12:31N 32°39' W 117°07'0 0.0
2017-Feb-25 08:28N 32°39' W 117°07'0 0.0
2017-Feb-25 05:32N 32°39' W 117°07'0 0.0
2017-Feb-24 21:28N 32°39' W 117°07'0 0.0
2017-Feb-24 16:30N 32°39' W 117°07'0 0.0
2017-Feb-24 15:29N 32°39' W 117°07'2 1.9
2017-Feb-24 14:33N 32°41' W 117°08'7 6.9
2017-Feb-24 13:33N 32°37' W 117°15'1111.2
2017-Feb-24 12:33N 32°28' W 117°23'1110.9
2017-Feb-24 11:33N 32°19' W 117°30'  

Dump ship's entire track history